X  Zatvori METAR podaci zračne luke     LDPL Pula Airport
Temperatura
18°C Temperatura
9°C Točka rosišta
56% Vlaga



Vjetar
11 KM/S
7 MPS
3 M/S
6 Čvorovi



120°
IJI
Trenutna situacija

Vedro Vedro
Tlak zraka 1010.92 (hPa) - 29.85 (inHg)
Vidljivost 6.2 (milje) - 10 (km)
Zračna luka
Kôd zračne luke LDPL

Lokacija: Pula Airport
Udaljenost: 39 (km)

Metar:
LDPL 061530Z 12006KT 090V190 CAVOK 18/09 Q1011 TEMPO 23008KT

Vrijeme: 06-05-2021 17:30 CEST